sensor_id;sensor_type;location;lat;lon;timestamp;P1;durP1;ratioP1;P2;durP2;ratioP2
36923;SDS011;22841;50.252;18.688;2022-07-23T00:01:20;23.95;;;11.15;;
36923;SDS011;22841;50.252;18.688;2022-07-23T00:03:47;15.45;;;10.80;;
36923;SDS011;22841;50.252;18.688;2022-07-23T00:06:13;16.35;;;11.02;;
36923;SDS011;22841;50.252;18.688;2022-07-23T00:08:39;22.85;;;11.68;;
36923;SDS011;22841;50.252;18.688;2022-07-23T00:11:06;16.95;;;10.90;;
36923;SDS011;22841;50.252;18.688;2022-07-23T00:13:32;15.38;;;11.48;;
36923;SDS011;22841;50.252;18.688;2022-07-23T00:15:58;26.90;;;12.27;;
36923;SDS011;22841;50.252;18.688;2022-07-23T00:18:24;17.83;;;12.77;;
36923;SDS011;22841;50.252;18.688;2022-07-23T00:20:50;22.70;;;12.32;;
36923;SDS011;22841;50.252;18.688;2022-07-23T00:23:16;19.70;;;12.15;;
36923;SDS011;22841;50.252;18.688;2022-07-23T00:25:42;24.95;;;13.43;;
36923;SDS011;22841;50.252;18.688;2022-07-23T00:28:10;20.70;;;13.32;;
36923;SDS011;22841;50.252;18.688;2022-07-23T00:30:36;21.05;;;11.77;;
36923;SDS011;22841;50.252;18.688;2022-07-23T00:33:04;18.15;;;12.00;;
36923;SDS011;22841;50.252;18.688;2022-07-23T00:35:32;24.17;;;12.60;;
36923;SDS011;22841;50.252;18.688;2022-07-23T00:38:00;29.05;;;13.95;;
36923;SDS011;22841;50.252;18.688;2022-07-23T00:40:27;20.23;;;12.93;;
36923;SDS011;22841;50.252;18.688;2022-07-23T00:42:53;18.40;;;13.45;;
36923;SDS011;22841;50.252;18.688;2022-07-23T00:45:20;20.17;;;13.32;;
36923;SDS011;22841;50.252;18.688;2022-07-23T00:47:46;21.40;;;13.32;;
36923;SDS011;22841;50.252;18.688;2022-07-23T00:50:13;22.50;;;13.38;;
36923;SDS011;22841;50.252;18.688;2022-07-23T00:52:39;16.58;;;12.77;;
36923;SDS011;22841;50.252;18.688;2022-07-23T00:55:06;17.02;;;12.30;;
36923;SDS011;22841;50.252;18.688;2022-07-23T00:57:34;15.43;;;12.50;;
36923;SDS011;22841;50.252;18.688;2022-07-23T01:00:02;25.60;;;12.18;;
36923;SDS011;22841;50.252;18.688;2022-07-23T01:02:29;19.15;;;14.13;;
36923;SDS011;22841;50.252;18.688;2022-07-23T01:04:55;16.45;;;12.48;;
36923;SDS011;22841;50.252;18.688;2022-07-23T01:07:21;18.58;;;13.45;;
36923;SDS011;22841;50.252;18.688;2022-07-23T01:09:48;21.33;;;12.65;;
36923;SDS011;22841;50.252;18.688;2022-07-23T01:12:18;18.20;;;13.45;;
36923;SDS011;22841;50.252;18.688;2022-07-23T01:14:44;18.75;;;13.02;;
36923;SDS011;22841;50.252;18.688;2022-07-23T01:17:11;19.77;;;12.93;;
36923;SDS011;22841;50.252;18.688;2022-07-23T01:19:37;22.45;;;13.65;;
36923;SDS011;22841;50.252;18.688;2022-07-23T01:22:03;26.73;;;13.82;;
36923;SDS011;22841;50.252;18.688;2022-07-23T01:24:29;19.58;;;13.77;;
36923;SDS011;22841;50.252;18.688;2022-07-23T01:26:55;21.52;;;13.10;;
36923;SDS011;22841;50.252;18.688;2022-07-23T01:29:21;24.27;;;13.50;;
36923;SDS011;22841;50.252;18.688;2022-07-23T01:31:48;20.85;;;13.00;;
36923;SDS011;22841;50.252;18.688;2022-07-23T01:34:14;19.92;;;13.48;;
36923;SDS011;22841;50.252;18.688;2022-07-23T01:36:40;20.60;;;13.93;;
36923;SDS011;22841;50.252;18.688;2022-07-23T01:39:06;18.55;;;14.68;;
36923;SDS011;22841;50.252;18.688;2022-07-23T01:41:33;19.02;;;12.77;;
36923;SDS011;22841;50.252;18.688;2022-07-23T01:43:59;23.63;;;14.38;;
36923;SDS011;22841;50.252;18.688;2022-07-23T01:46:25;23.05;;;13.18;;
36923;SDS011;22841;50.252;18.688;2022-07-23T01:48:52;23.95;;;14.38;;
36923;SDS011;22841;50.252;18.688;2022-07-23T01:51:18;17.85;;;13.05;;
36923;SDS011;22841;50.252;18.688;2022-07-23T01:53:44;19.33;;;13.82;;
36923;SDS011;22841;50.252;18.688;2022-07-23T01:56:10;22.55;;;14.35;;
36923;SDS011;22841;50.252;18.688;2022-07-23T01:58:37;19.10;;;13.75;;
36923;SDS011;22841;50.252;18.688;2022-07-23T02:01:03;20.13;;;15.38;;
36923;SDS011;22841;50.252;18.688;2022-07-23T02:03:29;24.50;;;15.20;;
36923;SDS011;22841;50.252;18.688;2022-07-23T02:05:56;23.10;;;14.88;;
36923;SDS011;22841;50.252;18.688;2022-07-23T02:08:22;21.35;;;14.23;;
36923;SDS011;22841;50.252;18.688;2022-07-23T02:10:48;25.85;;;14.18;;
36923;SDS011;22841;50.252;18.688;2022-07-23T02:13:16;19.92;;;14.75;;
36923;SDS011;22841;50.252;18.688;2022-07-23T02:15:43;21.67;;;14.35;;
36923;SDS011;22841;50.252;18.688;2022-07-23T02:18:10;21.27;;;14.38;;
36923;SDS011;22841;50.252;18.688;2022-07-23T02:20:36;22.77;;;16.30;;
36923;SDS011;22841;50.252;18.688;2022-07-23T02:23:04;24.13;;;16.27;;
36923;SDS011;22841;50.252;18.688;2022-07-23T02:25:30;24.33;;;15.15;;
36923;SDS011;22841;50.252;18.688;2022-07-23T02:27:56;24.60;;;14.52;;
36923;SDS011;22841;50.252;18.688;2022-07-23T02:30:23;23.30;;;14.65;;
36923;SDS011;22841;50.252;18.688;2022-07-23T02:32:49;31.17;;;15.95;;
36923;SDS011;22841;50.252;18.688;2022-07-23T02:35:15;26.58;;;15.93;;
36923;SDS011;22841;50.252;18.688;2022-07-23T02:37:41;27.42;;;16.33;;
36923;SDS011;22841;50.252;18.688;2022-07-23T02:40:07;24.95;;;15.82;;
36923;SDS011;22841;50.252;18.688;2022-07-23T02:42:33;20.50;;;15.80;;
36923;SDS011;22841;50.252;18.688;2022-07-23T02:44:59;18.63;;;14.27;;
36923;SDS011;22841;50.252;18.688;2022-07-23T02:47:25;25.45;;;15.77;;
36923;SDS011;22841;50.252;18.688;2022-07-23T02:49:52;21.23;;;16.10;;
36923;SDS011;22841;50.252;18.688;2022-07-23T02:52:18;22.80;;;16.08;;
36923;SDS011;22841;50.252;18.688;2022-07-23T02:54:44;20.77;;;16.13;;
36923;SDS011;22841;50.252;18.688;2022-07-23T02:57:10;24.50;;;15.02;;
36923;SDS011;22841;50.252;18.688;2022-07-23T02:59:36;28.73;;;15.20;;
36923;SDS011;22841;50.252;18.688;2022-07-23T03:02:02;25.13;;;14.45;;
36923;SDS011;22841;50.252;18.688;2022-07-23T03:04:28;22.30;;;15.13;;
36923;SDS011;22841;50.252;18.688;2022-07-23T03:06:54;18.45;;;13.93;;
36923;SDS011;22841;50.252;18.688;2022-07-23T03:09:20;19.73;;;14.55;;
36923;SDS011;22841;50.252;18.688;2022-07-23T03:11:46;21.30;;;14.80;;
36923;SDS011;22841;50.252;18.688;2022-07-23T03:14:12;23.13;;;15.40;;
36923;SDS011;22841;50.252;18.688;2022-07-23T03:16:40;25.13;;;15.80;;
36923;SDS011;22841;50.252;18.688;2022-07-23T03:19:07;23.98;;;15.07;;
36923;SDS011;22841;50.252;18.688;2022-07-23T03:21:33;32.65;;;17.02;;
36923;SDS011;22841;50.252;18.688;2022-07-23T03:24:00;23.13;;;14.90;;
36923;SDS011;22841;50.252;18.688;2022-07-23T03:26:26;20.55;;;15.02;;
36923;SDS011;22841;50.252;18.688;2022-07-23T03:28:52;31.63;;;14.88;;
36923;SDS011;22841;50.252;18.688;2022-07-23T03:31:18;25.42;;;15.43;;
36923;SDS011;22841;50.252;18.688;2022-07-23T03:33:44;21.73;;;14.88;;
36923;SDS011;22841;50.252;18.688;2022-07-23T03:36:10;23.90;;;15.27;;
36923;SDS011;22841;50.252;18.688;2022-07-23T03:38:37;27.10;;;15.60;;
36923;SDS011;22841;50.252;18.688;2022-07-23T03:41:03;18.48;;;14.52;;
36923;SDS011;22841;50.252;18.688;2022-07-23T03:43:29;25.83;;;15.48;;
36923;SDS011;22841;50.252;18.688;2022-07-23T03:45:55;25.40;;;16.08;;
36923;SDS011;22841;50.252;18.688;2022-07-23T03:48:21;22.02;;;14.98;;
36923;SDS011;22841;50.252;18.688;2022-07-23T03:50:47;24.48;;;15.15;;
36923;SDS011;22841;50.252;18.688;2022-07-23T03:53:13;21.40;;;14.75;;
36923;SDS011;22841;50.252;18.688;2022-07-23T03:55:39;20.10;;;14.45;;
36923;SDS011;22841;50.252;18.688;2022-07-23T03:58:05;26.85;;;15.20;;
36923;SDS011;22841;50.252;18.688;2022-07-23T04:00:31;21.63;;;15.48;;
36923;SDS011;22841;50.252;18.688;2022-07-23T04:02:57;23.38;;;16.60;;
36923;SDS011;22841;50.252;18.688;2022-07-23T04:05:23;22.17;;;15.40;;
36923;SDS011;22841;50.252;18.688;2022-07-23T04:07:49;27.02;;;16.15;;
36923;SDS011;22841;50.252;18.688;2022-07-23T04:10:15;17.75;;;14.88;;
36923;SDS011;22841;50.252;18.688;2022-07-23T04:12:41;22.35;;;15.60;;
36923;SDS011;22841;50.252;18.688;2022-07-23T04:15:07;26.05;;;15.50;;
36923;SDS011;22841;50.252;18.688;2022-07-23T04:17:34;24.70;;;15.85;;
36923;SDS011;22841;50.252;18.688;2022-07-23T04:20:00;21.50;;;15.63;;
36923;SDS011;22841;50.252;18.688;2022-07-23T04:22:27;18.40;;;15.45;;
36923;SDS011;22841;50.252;18.688;2022-07-23T04:24:53;38.80;;;16.10;;
36923;SDS011;22841;50.252;18.688;2022-07-23T04:27:20;28.10;;;16.00;;
36923;SDS011;22841;50.252;18.688;2022-07-23T04:29:46;20.90;;;15.68;;
36923;SDS011;22841;50.252;18.688;2022-07-23T04:32:12;25.40;;;17.45;;
36923;SDS011;22841;50.252;18.688;2022-07-23T04:34:38;21.63;;;16.88;;
36923;SDS011;22841;50.252;18.688;2022-07-23T04:37:04;22.77;;;16.25;;
36923;SDS011;22841;50.252;18.688;2022-07-23T04:39:30;34.55;;;16.85;;
36923;SDS011;22841;50.252;18.688;2022-07-23T04:41:57;24.33;;;17.27;;
36923;SDS011;22841;50.252;18.688;2022-07-23T04:44:23;25.30;;;17.33;;
36923;SDS011;22841;50.252;18.688;2022-07-23T04:46:49;32.53;;;18.63;;
36923;SDS011;22841;50.252;18.688;2022-07-23T04:49:15;26.58;;;19.08;;
36923;SDS011;22841;50.252;18.688;2022-07-23T04:51:41;25.45;;;17.30;;
36923;SDS011;22841;50.252;18.688;2022-07-23T04:54:07;24.20;;;17.77;;
36923;SDS011;22841;50.252;18.688;2022-07-23T04:56:33;27.70;;;18.77;;
36923;SDS011;22841;50.252;18.688;2022-07-23T04:58:59;50.38;;;20.58;;
36923;SDS011;22841;50.252;18.688;2022-07-23T05:01:25;48.80;;;20.95;;
36923;SDS011;22841;50.252;18.688;2022-07-23T05:03:51;50.40;;;20.33;;
36923;SDS011;22841;50.252;18.688;2022-07-23T05:06:17;29.60;;;19.98;;
36923;SDS011;22841;50.252;18.688;2022-07-23T05:08:45;37.40;;;20.10;;
36923;SDS011;22841;50.252;18.688;2022-07-23T05:11:11;73.50;;;22.80;;
36923;SDS011;22841;50.252;18.688;2022-07-23T05:13:37;43.63;;;20.50;;
36923;SDS011;22841;50.252;18.688;2022-07-23T05:16:03;34.75;;;20.33;;
36923;SDS011;22841;50.252;18.688;2022-07-23T05:18:29;27.05;;;20.55;;
36923;SDS011;22841;50.252;18.688;2022-07-23T05:20:55;36.33;;;20.58;;
36923;SDS011;22841;50.252;18.688;2022-07-23T05:23:21;40.65;;;20.15;;
36923;SDS011;22841;50.252;18.688;2022-07-23T05:25:47;36.42;;;19.95;;
36923;SDS011;22841;50.252;18.688;2022-07-23T05:28:13;39.75;;;21.15;;
36923;SDS011;22841;50.252;18.688;2022-07-23T05:30:39;37.95;;;21.35;;
36923;SDS011;22841;50.252;18.688;2022-07-23T05:33:05;42.80;;;21.65;;
36923;SDS011;22841;50.252;18.688;2022-07-23T05:35:33;34.42;;;22.70;;
36923;SDS011;22841;50.252;18.688;2022-07-23T05:37:59;39.13;;;24.00;;
36923;SDS011;22841;50.252;18.688;2022-07-23T05:40:25;41.22;;;24.15;;
36923;SDS011;22841;50.252;18.688;2022-07-23T05:42:51;36.65;;;23.42;;
36923;SDS011;22841;50.252;18.688;2022-07-23T05:45:17;37.72;;;23.73;;
36923;SDS011;22841;50.252;18.688;2022-07-23T05:47:44;31.02;;;22.77;;
36923;SDS011;22841;50.252;18.688;2022-07-23T05:50:11;40.17;;;23.95;;
36923;SDS011;22841;50.252;18.688;2022-07-23T05:52:39;32.47;;;22.98;;
36923;SDS011;22841;50.252;18.688;2022-07-23T05:55:06;43.85;;;25.45;;
36923;SDS011;22841;50.252;18.688;2022-07-23T05:57:32;37.38;;;23.42;;
36923;SDS011;22841;50.252;18.688;2022-07-23T05:59:59;36.55;;;23.13;;
36923;SDS011;22841;50.252;18.688;2022-07-23T06:02:25;39.63;;;23.38;;
36923;SDS011;22841;50.252;18.688;2022-07-23T06:04:51;41.08;;;24.75;;
36923;SDS011;22841;50.252;18.688;2022-07-23T06:07:17;41.30;;;23.88;;
36923;SDS011;22841;50.252;18.688;2022-07-23T06:09:43;34.95;;;20.40;;
36923;SDS011;22841;50.252;18.688;2022-07-23T06:12:09;36.22;;;21.48;;
36923;SDS011;22841;50.252;18.688;2022-07-23T06:14:35;26.90;;;20.38;;
36923;SDS011;22841;50.252;18.688;2022-07-23T06:17:01;32.70;;;20.75;;
36923;SDS011;22841;50.252;18.688;2022-07-23T06:19:27;32.83;;;21.38;;
36923;SDS011;22841;50.252;18.688;2022-07-23T06:21:53;31.50;;;20.55;;
36923;SDS011;22841;50.252;18.688;2022-07-23T06:24:19;35.03;;;19.52;;
36923;SDS011;22841;50.252;18.688;2022-07-23T06:26:45;32.17;;;18.33;;
36923;SDS011;22841;50.252;18.688;2022-07-23T06:29:11;27.98;;;18.30;;
36923;SDS011;22841;50.252;18.688;2022-07-23T06:31:37;30.75;;;19.42;;
36923;SDS011;22841;50.252;18.688;2022-07-23T06:34:03;31.75;;;19.55;;
36923;SDS011;22841;50.252;18.688;2022-07-23T06:36:29;33.80;;;18.38;;
36923;SDS011;22841;50.252;18.688;2022-07-23T06:38:55;27.02;;;19.38;;
36923;SDS011;22841;50.252;18.688;2022-07-23T06:41:22;29.77;;;17.98;;
36923;SDS011;22841;50.252;18.688;2022-07-23T06:43:48;28.90;;;18.80;;
36923;SDS011;22841;50.252;18.688;2022-07-23T06:46:14;29.27;;;16.55;;
36923;SDS011;22841;50.252;18.688;2022-07-23T06:48:40;23.48;;;17.00;;
36923;SDS011;22841;50.252;18.688;2022-07-23T06:51:06;27.90;;;16.90;;
36923;SDS011;22841;50.252;18.688;2022-07-23T06:53:32;23.50;;;15.98;;
36923;SDS011;22841;50.252;18.688;2022-07-23T06:55:59;22.77;;;16.48;;
36923;SDS011;22841;50.252;18.688;2022-07-23T06:58:25;27.48;;;18.85;;
36923;SDS011;22841;50.252;18.688;2022-07-23T07:00:51;32.05;;;17.20;;
36923;SDS011;22841;50.252;18.688;2022-07-23T07:03:17;26.08;;;16.67;;
36923;SDS011;22841;50.252;18.688;2022-07-23T07:05:45;30.00;;;18.08;;
36923;SDS011;22841;50.252;18.688;2022-07-23T07:08:11;24.25;;;17.20;;
36923;SDS011;22841;50.252;18.688;2022-07-23T07:10:37;42.78;;;19.33;;
36923;SDS011;22841;50.252;18.688;2022-07-23T07:13:03;48.17;;;16.95;;
36923;SDS011;22841;50.252;18.688;2022-07-23T07:15:29;26.70;;;16.42;;
36923;SDS011;22841;50.252;18.688;2022-07-23T07:17:55;28.63;;;16.83;;
36923;SDS011;22841;50.252;18.688;2022-07-23T07:20:21;25.83;;;16.48;;
36923;SDS011;22841;50.252;18.688;2022-07-23T07:22:49;24.52;;;16.33;;
36923;SDS011;22841;50.252;18.688;2022-07-23T07:25:15;26.90;;;17.42;;
36923;SDS011;22841;50.252;18.688;2022-07-23T07:27:41;29.33;;;17.00;;
36923;SDS011;22841;50.252;18.688;2022-07-23T07:30:10;23.80;;;16.48;;
36923;SDS011;22841;50.252;18.688;2022-07-23T07:32:37;21.48;;;16.70;;
36923;SDS011;22841;50.252;18.688;2022-07-23T07:35:04;24.10;;;15.38;;
36923;SDS011;22841;50.252;18.688;2022-07-23T07:37:31;28.38;;;14.65;;
36923;SDS011;22841;50.252;18.688;2022-07-23T07:39:57;21.88;;;15.43;;
36923;SDS011;22841;50.252;18.688;2022-07-23T07:42:23;22.73;;;14.60;;
36923;SDS011;22841;50.252;18.688;2022-07-23T07:44:49;21.30;;;14.90;;
36923;SDS011;22841;50.252;18.688;2022-07-23T07:47:15;29.98;;;14.98;;
36923;SDS011;22841;50.252;18.688;2022-07-23T07:49:42;30.90;;;13.07;;
36923;SDS011;22841;50.252;18.688;2022-07-23T07:52:08;31.13;;;14.75;;
36923;SDS011;22841;50.252;18.688;2022-07-23T07:54:35;20.92;;;13.80;;
36923;SDS011;22841;50.252;18.688;2022-07-23T07:57:02;24.08;;;13.88;;
36923;SDS011;22841;50.252;18.688;2022-07-23T07:59:28;15.45;;;12.70;;
36923;SDS011;22841;50.252;18.688;2022-07-23T08:01:54;18.80;;;13.07;;
36923;SDS011;22841;50.252;18.688;2022-07-23T08:04:20;17.65;;;12.15;;
36923;SDS011;22841;50.252;18.688;2022-07-23T08:06:46;18.88;;;12.80;;
36923;SDS011;22841;50.252;18.688;2022-07-23T08:09:12;20.13;;;11.95;;
36923;SDS011;22841;50.252;18.688;2022-07-23T08:11:38;18.70;;;12.15;;
36923;SDS011;22841;50.252;18.688;2022-07-23T08:14:04;19.10;;;11.38;;
36923;SDS011;22841;50.252;18.688;2022-07-23T08:16:31;17.05;;;12.10;;
36923;SDS011;22841;50.252;18.688;2022-07-23T08:18:57;23.80;;;11.90;;
36923;SDS011;22841;50.252;18.688;2022-07-23T08:21:24;18.10;;;11.88;;
36923;SDS011;22841;50.252;18.688;2022-07-23T08:23:50;26.42;;;12.50;;
36923;SDS011;22841;50.252;18.688;2022-07-23T08:26:16;15.60;;;10.25;;
36923;SDS011;22841;50.252;18.688;2022-07-23T08:28:42;12.13;;;10.30;;
36923;SDS011;22841;50.252;18.688;2022-07-23T08:31:08;15.32;;;8.88;;
36923;SDS011;22841;50.252;18.688;2022-07-23T08:33:36;15.10;;;8.98;;
36923;SDS011;22841;50.252;18.688;2022-07-23T08:36:03;13.75;;;10.45;;
36923;SDS011;22841;50.252;18.688;2022-07-23T08:38:29;15.32;;;10.25;;
36923;SDS011;22841;50.252;18.688;2022-07-23T08:40:56;14.43;;;10.45;;
36923;SDS011;22841;50.252;18.688;2022-07-23T08:43:24;15.30;;;10.93;;
36923;SDS011;22841;50.252;18.688;2022-07-23T08:45:58;14.63;;;10.05;;
36923;SDS011;22841;50.252;18.688;2022-07-23T08:48:26;14.63;;;8.10;;
36923;SDS011;22841;50.252;18.688;2022-07-23T08:50:57;11.63;;;7.75;;
36923;SDS011;22841;50.252;18.688;2022-07-23T08:53:25;13.27;;;8.15;;
36923;SDS011;22841;50.252;18.688;2022-07-23T08:55:53;9.43;;;8.20;;
36923;SDS011;22841;50.252;18.688;2022-07-23T08:58:20;14.02;;;9.07;;
36923;SDS011;22841;50.252;18.688;2022-07-23T09:00:47;12.05;;;9.18;;
36923;SDS011;22841;50.252;18.688;2022-07-23T09:03:15;13.55;;;9.15;;
36923;SDS011;22841;50.252;18.688;2022-07-23T09:05:43;10.20;;;8.10;;
36923;SDS011;22841;50.252;18.688;2022-07-23T09:08:11;15.82;;;9.07;;
36923;SDS011;22841;50.252;18.688;2022-07-23T09:10:58;8.65;;;7.75;;
36923;SDS011;22841;50.252;18.688;2022-07-23T09:18:40;6.32;;;5.72;;
36923;SDS011;22841;50.252;18.688;2022-07-23T09:23:40;15.85;;;7.90;;
36923;SDS011;22841;50.252;18.688;2022-07-23T09:26:17;9.85;;;7.22;;
36923;SDS011;22841;50.252;18.688;2022-07-23T09:31:50;10.20;;;7.40;;
36923;SDS011;22841;50.252;18.688;2022-07-23T09:37:12;11.93;;;7.15;;
36923;SDS011;22841;50.252;18.688;2022-07-23T09:39:39;77.22;;;14.65;;
36923;SDS011;22841;50.252;18.688;2022-07-23T09:42:39;15.90;;;8.02;;
36923;SDS011;22841;50.252;18.688;2022-07-23T09:44:58;159.48;;;21.30;;
36923;SDS011;22841;50.252;18.688;2022-07-23T09:47:26;16.30;;;7.65;;
36923;SDS011;22841;50.252;18.688;2022-07-23T09:49:57;14.50;;;7.22;;
36923;SDS011;22841;50.252;18.688;2022-07-23T09:52:36;12.00;;;6.28;;
36923;SDS011;22841;50.252;18.688;2022-07-23T09:55:08;7.65;;;6.50;;
36923;SDS011;22841;50.252;18.688;2022-07-23T09:57:36;11.82;;;6.50;;
36923;SDS011;22841;50.252;18.688;2022-07-23T10:00:05;15.25;;;6.85;;
36923;SDS011;22841;50.252;18.688;2022-07-23T10:02:35;11.88;;;6.80;;
36923;SDS011;22841;50.252;18.688;2022-07-23T10:05:02;13.75;;;7.80;;
36923;SDS011;22841;50.252;18.688;2022-07-23T10:07:31;11.57;;;7.22;;
36923;SDS011;22841;50.252;18.688;2022-07-23T10:09:59;40.28;;;9.88;;
36923;SDS011;22841;50.252;18.688;2022-07-23T10:12:26;13.48;;;7.60;;
36923;SDS011;22841;50.252;18.688;2022-07-23T10:14:52;9.90;;;7.13;;
36923;SDS011;22841;50.252;18.688;2022-07-23T10:17:19;26.70;;;9.10;;
36923;SDS011;22841;50.252;18.688;2022-07-23T10:19:45;23.92;;;7.25;;
36923;SDS011;22841;50.252;18.688;2022-07-23T10:22:12;7.95;;;7.03;;
36923;SDS011;22841;50.252;18.688;2022-07-23T10:39:22;14.80;;;7.47;;
36923;SDS011;22841;50.252;18.688;2022-07-23T10:41:50;11.43;;;6.45;;
36923;SDS011;22841;50.252;18.688;2022-07-23T10:44:20;9.43;;;6.75;;
36923;SDS011;22841;50.252;18.688;2022-07-23T10:47:02;8.63;;;6.55;;
36923;SDS011;22841;50.252;18.688;2022-07-23T10:49:32;8.47;;;6.53;;
36923;SDS011;22841;50.252;18.688;2022-07-23T10:57:07;11.45;;;6.38;;
36923;SDS011;22841;50.252;18.688;2022-07-23T11:02:37;10.93;;;6.20;;
36923;SDS011;22841;50.252;18.688;2022-07-23T11:05:08;7.13;;;6.43;;
36923;SDS011;22841;50.252;18.688;2022-07-23T11:08:09;14.55;;;7.95;;
36923;SDS011;22841;50.252;18.688;2022-07-23T11:10:32;20.30;;;7.18;;
36923;SDS011;22841;50.252;18.688;2022-07-23T11:19:09;8.45;;;6.80;;
36923;SDS011;22841;50.252;18.688;2022-07-23T11:32:26;7.80;;;6.53;;
36923;SDS011;22841;50.252;18.688;2022-07-23T11:34:51;12.30;;;7.30;;
36923;SDS011;22841;50.252;18.688;2022-07-23T11:37:29;6.93;;;6.30;;
36923;SDS011;22841;50.252;18.688;2022-07-23T11:39:59;9.80;;;7.40;;
36923;SDS011;22841;50.252;18.688;2022-07-23T11:42:25;12.40;;;7.00;;
36923;SDS011;22841;50.252;18.688;2022-07-23T11:44:51;9.75;;;7.13;;
36923;SDS011;22841;50.252;18.688;2022-07-23T11:47:21;8.95;;;6.93;;
36923;SDS011;22841;50.252;18.688;2022-07-23T11:49:55;10.82;;;7.53;;
36923;SDS011;22841;50.252;18.688;2022-07-23T11:52:23;8.18;;;6.00;;
36923;SDS011;22841;50.252;18.688;2022-07-23T11:54:54;9.73;;;7.72;;
36923;SDS011;22841;50.252;18.688;2022-07-23T11:57:28;9.25;;;7.25;;
36923;SDS011;22841;50.252;18.688;2022-07-23T12:02:43;8.90;;;6.55;;
36923;SDS011;22841;50.252;18.688;2022-07-23T12:05:15;14.90;;;6.95;;
36923;SDS011;22841;50.252;18.688;2022-07-23T12:07:43;8.95;;;7.07;;
36923;SDS011;22841;50.252;18.688;2022-07-23T12:10:18;7.68;;;6.75;;
36923;SDS011;22841;50.252;18.688;2022-07-23T12:12:53;13.73;;;7.20;;
36923;SDS011;22841;50.252;18.688;2022-07-23T12:15:21;9.73;;;6.63;;
36923;SDS011;22841;50.252;18.688;2022-07-23T12:17:52;9.18;;;6.50;;
36923;SDS011;22841;50.252;18.688;2022-07-23T12:20:25;6.18;;;5.57;;
36923;SDS011;22841;50.252;18.688;2022-07-23T12:23:02;7.88;;;6.78;;
36923;SDS011;22841;50.252;18.688;2022-07-23T12:25:35;9.52;;;6.80;;
36923;SDS011;22841;50.252;18.688;2022-07-23T12:30:46;14.63;;;7.57;;
36923;SDS011;22841;50.252;18.688;2022-07-23T12:33:59;10.88;;;7.38;;
36923;SDS011;22841;50.252;18.688;2022-07-23T12:36:03;14.82;;;7.60;;
36923;SDS011;22841;50.252;18.688;2022-07-23T12:38:47;13.93;;;7.35;;
36923;SDS011;22841;50.252;18.688;2022-07-23T12:41:16;11.48;;;6.75;;
36923;SDS011;22841;50.252;18.688;2022-07-23T12:43:44;8.68;;;6.30;;
36923;SDS011;22841;50.252;18.688;2022-07-23T12:46:17;14.80;;;7.72;;
36923;SDS011;22841;50.252;18.688;2022-07-23T12:51:21;10.63;;;7.22;;
36923;SDS011;22841;50.252;18.688;2022-07-23T12:53:52;10.38;;;5.93;;
36923;SDS011;22841;50.252;18.688;2022-07-23T13:04:10;9.85;;;6.57;;
36923;SDS011;22841;50.252;18.688;2022-07-23T13:06:51;15.05;;;6.43;;
36923;SDS011;22841;50.252;18.688;2022-07-23T13:09:29;13.50;;;6.65;;
36923;SDS011;22841;50.252;18.688;2022-07-23T13:11:56;6.93;;;6.15;;
36923;SDS011;22841;50.252;18.688;2022-07-23T13:14:23;12.20;;;7.30;;
36923;SDS011;22841;50.252;18.688;2022-07-23T13:16:52;11.15;;;8.43;;
36923;SDS011;22841;50.252;18.688;2022-07-23T13:19:19;8.82;;;7.05;;
36923;SDS011;22841;50.252;18.688;2022-07-23T13:21:47;11.23;;;6.70;;
36923;SDS011;22841;50.252;18.688;2022-07-23T13:24:14;9.98;;;6.47;;
36923;SDS011;22841;50.252;18.688;2022-07-23T13:26:41;9.48;;;7.03;;
36923;SDS011;22841;50.252;18.688;2022-07-23T13:29:07;9.57;;;6.45;;
36923;SDS011;22841;50.252;18.688;2022-07-23T13:31:33;6.63;;;6.03;;
36923;SDS011;22841;50.252;18.688;2022-07-23T13:34:00;7.28;;;6.03;;
36923;SDS011;22841;50.252;18.688;2022-07-23T13:36:26;6.90;;;6.10;;
36923;SDS011;22841;50.252;18.688;2022-07-23T13:38:52;14.27;;;6.97;;
36923;SDS011;22841;50.252;18.688;2022-07-23T13:41:18;7.28;;;6.50;;
36923;SDS011;22841;50.252;18.688;2022-07-23T13:43:45;7.63;;;6.40;;
36923;SDS011;22841;50.252;18.688;2022-07-23T13:46:11;6.72;;;6.03;;
36923;SDS011;22841;50.252;18.688;2022-07-23T13:48:37;8.25;;;7.22;;
36923;SDS011;22841;50.252;18.688;2022-07-23T13:51:03;17.92;;;7.50;;
36923;SDS011;22841;50.252;18.688;2022-07-23T13:53:29;22.75;;;7.85;;
36923;SDS011;22841;50.252;18.688;2022-07-23T13:55:55;23.33;;;7.00;;
36923;SDS011;22841;50.252;18.688;2022-07-23T13:58:22;13.65;;;7.80;;
36923;SDS011;22841;50.252;18.688;2022-07-23T14:00:50;15.90;;;8.45;;
36923;SDS011;22841;50.252;18.688;2022-07-23T14:03:18;19.75;;;7.57;;
36923;SDS011;22841;50.252;18.688;2022-07-23T14:05:44;12.98;;;7.93;;
36923;SDS011;22841;50.252;18.688;2022-07-23T14:08:10;17.55;;;8.23;;
36923;SDS011;22841;50.252;18.688;2022-07-23T14:10:36;15.10;;;8.05;;
36923;SDS011;22841;50.252;18.688;2022-07-23T14:13:03;16.40;;;7.65;;
36923;SDS011;22841;50.252;18.688;2022-07-23T14:15:30;17.13;;;7.88;;
36923;SDS011;22841;50.252;18.688;2022-07-23T14:17:57;23.35;;;7.43;;
36923;SDS011;22841;50.252;18.688;2022-07-23T14:20:23;12.90;;;7.72;;
36923;SDS011;22841;50.252;18.688;2022-07-23T14:22:50;18.48;;;8.35;;
36923;SDS011;22841;50.252;18.688;2022-07-23T14:25:17;11.20;;;8.65;;
36923;SDS011;22841;50.252;18.688;2022-07-23T14:27:43;12.73;;;8.25;;
36923;SDS011;22841;50.252;18.688;2022-07-23T14:30:11;11.15;;;8.50;;
36923;SDS011;22841;50.252;18.688;2022-07-23T14:32:38;13.82;;;8.82;;
36923;SDS011;22841;50.252;18.688;2022-07-23T14:35:04;17.20;;;9.82;;
36923;SDS011;22841;50.252;18.688;2022-07-23T14:37:31;12.20;;;8.95;;
36923;SDS011;22841;50.252;18.688;2022-07-23T14:39:57;15.45;;;8.85;;
36923;SDS011;22841;50.252;18.688;2022-07-23T14:42:24;17.00;;;8.68;;
36923;SDS011;22841;50.252;18.688;2022-07-23T14:44:51;13.73;;;8.65;;
36923;SDS011;22841;50.252;18.688;2022-07-23T14:47:17;11.52;;;8.73;;
36923;SDS011;22841;50.252;18.688;2022-07-23T14:49:43;11.77;;;8.88;;
36923;SDS011;22841;50.252;18.688;2022-07-23T14:52:09;11.95;;;8.57;;
36923;SDS011;22841;50.252;18.688;2022-07-23T14:54:35;13.93;;;8.70;;
36923;SDS011;22841;50.252;18.688;2022-07-23T14:57:02;11.73;;;8.25;;
36923;SDS011;22841;50.252;18.688;2022-07-23T14:59:28;13.75;;;9.68;;
36923;SDS011;22841;50.252;18.688;2022-07-23T15:01:57;11.40;;;8.60;;
36923;SDS011;22841;50.252;18.688;2022-07-23T15:04:23;11.25;;;8.65;;
36923;SDS011;22841;50.252;18.688;2022-07-23T15:06:50;17.00;;;9.50;;
36923;SDS011;22841;50.252;18.688;2022-07-23T15:09:16;14.48;;;9.68;;
36923;SDS011;22841;50.252;18.688;2022-07-23T15:11:43;11.70;;;10.23;;
36923;SDS011;22841;50.252;18.688;2022-07-23T15:14:09;11.25;;;9.70;;
36923;SDS011;22841;50.252;18.688;2022-07-23T15:16:35;17.65;;;9.65;;
36923;SDS011;22841;50.252;18.688;2022-07-23T15:19:01;16.65;;;9.05;;
36923;SDS011;22841;50.252;18.688;2022-07-23T15:21:28;14.40;;;9.02;;
36923;SDS011;22841;50.252;18.688;2022-07-23T15:23:55;11.95;;;9.32;;
36923;SDS011;22841;50.252;18.688;2022-07-23T15:26:27;16.77;;;9.73;;